sensor_id;sensor_type;location;lat;lon;timestamp;temperature;humidity
35962;DHT22;22044;48.298;10.008;2023-06-19T00:02:17;20.70;99.90
35962;DHT22;22044;48.298;10.008;2023-06-19T00:05:05;20.70;99.90
35962;DHT22;22044;48.298;10.008;2023-06-19T00:07:53;20.60;99.90
35962;DHT22;22044;48.298;10.008;2023-06-19T00:10:38;20.50;99.90
35962;DHT22;22044;48.298;10.008;2023-06-19T00:13:24;20.50;99.90
35962;DHT22;22044;48.298;10.008;2023-06-19T00:16:10;20.40;99.90
35962;DHT22;22044;48.298;10.008;2023-06-19T00:18:55;20.30;99.90
35962;DHT22;22044;48.298;10.008;2023-06-19T00:21:41;20.40;99.90
35962;DHT22;22044;48.298;10.008;2023-06-19T00:24:29;20.50;99.90
35962;DHT22;22044;48.298;10.008;2023-06-19T00:27:14;20.50;99.90
35962;DHT22;22044;48.298;10.008;2023-06-19T00:29:59;20.60;99.90
35962;DHT22;22044;48.298;10.008;2023-06-19T00:32:46;20.60;99.90
35962;DHT22;22044;48.298;10.008;2023-06-19T00:35:33;20.70;99.90
35962;DHT22;22044;48.298;10.008;2023-06-19T00:38:19;20.50;99.90
35962;DHT22;22044;48.298;10.008;2023-06-19T00:41:06;20.50;99.90
35962;DHT22;22044;48.298;10.008;2023-06-19T00:43:53;20.50;99.90
35962;DHT22;22044;48.298;10.008;2023-06-19T00:46:40;20.60;99.90
35962;DHT22;22044;48.298;10.008;2023-06-19T00:49:29;20.60;99.90
35962;DHT22;22044;48.298;10.008;2023-06-19T00:52:16;20.60;99.90
35962;DHT22;22044;48.298;10.008;2023-06-19T00:55:02;20.60;99.90
35962;DHT22;22044;48.298;10.008;2023-06-19T00:57:51;20.70;99.90
35962;DHT22;22044;48.298;10.008;2023-06-19T01:00:37;20.60;99.90
35962;DHT22;22044;48.298;10.008;2023-06-19T01:03:23;20.60;99.90
35962;DHT22;22044;48.298;10.008;2023-06-19T01:06:14;20.60;99.90
35962;DHT22;22044;48.298;10.008;2023-06-19T01:09:03;20.50;99.90
35962;DHT22;22044;48.298;10.008;2023-06-19T01:11:55;20.50;99.90
35962;DHT22;22044;48.298;10.008;2023-06-19T01:14:50;20.50;99.90
35962;DHT22;22044;48.298;10.008;2023-06-19T01:17:38;20.40;99.90
35962;DHT22;22044;48.298;10.008;2023-06-19T01:20:25;20.40;99.90
35962;DHT22;22044;48.298;10.008;2023-06-19T01:23:11;20.40;99.90
35962;DHT22;22044;48.298;10.008;2023-06-19T01:25:57;20.30;99.90
35962;DHT22;22044;48.298;10.008;2023-06-19T01:28:44;20.40;99.90
35962;DHT22;22044;48.298;10.008;2023-06-19T01:31:33;20.30;99.90
35962;DHT22;22044;48.298;10.008;2023-06-19T01:34:20;20.40;99.90
35962;DHT22;22044;48.298;10.008;2023-06-19T01:37:07;20.30;99.90
35962;DHT22;22044;48.298;10.008;2023-06-19T01:39:57;20.30;99.90
35962;DHT22;22044;48.298;10.008;2023-06-19T01:42:43;20.30;99.90
35962;DHT22;22044;48.298;10.008;2023-06-19T01:45:29;20.30;99.90
35962;DHT22;22044;48.298;10.008;2023-06-19T01:48:15;20.30;99.90
35962;DHT22;22044;48.298;10.008;2023-06-19T01:51:01;20.20;99.90
35962;DHT22;22044;48.298;10.008;2023-06-19T01:53:47;20.00;99.90
35962;DHT22;22044;48.298;10.008;2023-06-19T01:56:34;19.70;99.90
35962;DHT22;22044;48.298;10.008;2023-06-19T01:59:20;19.60;99.90
35962;DHT22;22044;48.298;10.008;2023-06-19T02:02:07;19.70;99.90
35962;DHT22;22044;48.298;10.008;2023-06-19T02:04:52;19.80;99.90
35962;DHT22;22044;48.298;10.008;2023-06-19T02:07:38;19.90;99.90
35962;DHT22;22044;48.298;10.008;2023-06-19T02:10:24;19.90;99.90
35962;DHT22;22044;48.298;10.008;2023-06-19T02:13:11;19.90;99.90
35962;DHT22;22044;48.298;10.008;2023-06-19T02:15:56;19.80;99.90
35962;DHT22;22044;48.298;10.008;2023-06-19T02:18:46;19.60;99.90
35962;DHT22;22044;48.298;10.008;2023-06-19T02:21:32;19.50;99.90
35962;DHT22;22044;48.298;10.008;2023-06-19T02:24:18;19.50;99.90
35962;DHT22;22044;48.298;10.008;2023-06-19T02:27:04;19.50;99.90
35962;DHT22;22044;48.298;10.008;2023-06-19T02:29:52;19.50;99.90
35962;DHT22;22044;48.298;10.008;2023-06-19T02:32:37;19.50;99.90
35962;DHT22;22044;48.298;10.008;2023-06-19T02:35:23;19.60;99.90
35962;DHT22;22044;48.298;10.008;2023-06-19T02:38:08;19.60;99.90
35962;DHT22;22044;48.298;10.008;2023-06-19T02:40:54;19.70;99.90
35962;DHT22;22044;48.298;10.008;2023-06-19T02:43:42;19.80;99.90
35962;DHT22;22044;48.298;10.008;2023-06-19T02:46:29;19.80;99.90
35962;DHT22;22044;48.298;10.008;2023-06-19T02:49:15;19.80;99.90
35962;DHT22;22044;48.298;10.008;2023-06-19T02:52:01;19.80;99.90
35962;DHT22;22044;48.298;10.008;2023-06-19T02:54:47;19.70;99.90
35962;DHT22;22044;48.298;10.008;2023-06-19T02:57:33;19.70;99.90
35962;DHT22;22044;48.298;10.008;2023-06-19T03:00:21;19.70;99.90
35962;DHT22;22044;48.298;10.008;2023-06-19T03:03:09;19.60;99.90
35962;DHT22;22044;48.298;10.008;2023-06-19T03:05:55;19.50;99.90
35962;DHT22;22044;48.298;10.008;2023-06-19T03:08:41;19.50;99.90
35962;DHT22;22044;48.298;10.008;2023-06-19T03:11:27;19.50;99.90
35962;DHT22;22044;48.298;10.008;2023-06-19T03:14:12;19.50;99.90
35962;DHT22;22044;48.298;10.008;2023-06-19T03:16:58;19.50;99.90
35962;DHT22;22044;48.298;10.008;2023-06-19T03:19:46;19.40;99.90
35962;DHT22;22044;48.298;10.008;2023-06-19T03:22:32;19.50;99.90
35962;DHT22;22044;48.298;10.008;2023-06-19T03:25:18;19.50;99.90
35962;DHT22;22044;48.298;10.008;2023-06-19T03:28:05;19.50;99.90
35962;DHT22;22044;48.298;10.008;2023-06-19T03:30:52;19.40;99.90
35962;DHT22;22044;48.298;10.008;2023-06-19T03:33:41;19.40;99.90
35962;DHT22;22044;48.298;10.008;2023-06-19T03:36:29;19.40;99.90
35962;DHT22;22044;48.298;10.008;2023-06-19T03:39:22;19.40;99.90
35962;DHT22;22044;48.298;10.008;2023-06-19T03:42:09;19.40;99.90
35962;DHT22;22044;48.298;10.008;2023-06-19T03:44:54;19.40;99.90
35962;DHT22;22044;48.298;10.008;2023-06-19T03:47:40;19.30;99.90
35962;DHT22;22044;48.298;10.008;2023-06-19T03:50:25;19.40;99.90
35962;DHT22;22044;48.298;10.008;2023-06-19T03:53:12;19.40;99.90
35962;DHT22;22044;48.298;10.008;2023-06-19T03:55:58;19.50;99.90
35962;DHT22;22044;48.298;10.008;2023-06-19T03:58:43;19.40;99.90
35962;DHT22;22044;48.298;10.008;2023-06-19T04:01:30;19.40;99.90
35962;DHT22;22044;48.298;10.008;2023-06-19T04:04:16;19.50;99.90
35962;DHT22;22044;48.298;10.008;2023-06-19T04:07:05;19.50;99.90
35962;DHT22;22044;48.298;10.008;2023-06-19T04:09:52;19.50;99.90
35962;DHT22;22044;48.298;10.008;2023-06-19T04:12:38;19.60;99.90
35962;DHT22;22044;48.298;10.008;2023-06-19T04:15:24;19.60;99.90
35962;DHT22;22044;48.298;10.008;2023-06-19T04:18:09;19.60;99.90
35962;DHT22;22044;48.298;10.008;2023-06-19T04:20:55;19.50;99.90
35962;DHT22;22044;48.298;10.008;2023-06-19T04:23:40;19.60;99.90
35962;DHT22;22044;48.298;10.008;2023-06-19T04:26:27;19.50;99.90
35962;DHT22;22044;48.298;10.008;2023-06-19T04:29:13;19.50;99.90
35962;DHT22;22044;48.298;10.008;2023-06-19T04:32:01;19.60;99.90
35962;DHT22;22044;48.298;10.008;2023-06-19T04:34:55;19.70;99.90
35962;DHT22;22044;48.298;10.008;2023-06-19T04:37:41;19.90;99.90
35962;DHT22;22044;48.298;10.008;2023-06-19T04:40:27;20.00;99.90
35962;DHT22;22044;48.298;10.008;2023-06-19T04:43:14;20.00;99.90
35962;DHT22;22044;48.298;10.008;2023-06-19T04:45:59;20.00;99.90
35962;DHT22;22044;48.298;10.008;2023-06-19T04:48:47;20.10;99.90
35962;DHT22;22044;48.298;10.008;2023-06-19T04:51:35;20.10;99.90
35962;DHT22;22044;48.298;10.008;2023-06-19T04:54:20;20.20;99.90
35962;DHT22;22044;48.298;10.008;2023-06-19T04:57:06;20.20;99.90
35962;DHT22;22044;48.298;10.008;2023-06-19T04:59:53;20.20;99.90
35962;DHT22;22044;48.298;10.008;2023-06-19T05:02:39;20.20;99.90
35962;DHT22;22044;48.298;10.008;2023-06-19T05:05:28;20.20;99.90
35962;DHT22;22044;48.298;10.008;2023-06-19T05:08:14;20.10;99.90
35962;DHT22;22044;48.298;10.008;2023-06-19T05:10:59;20.10;99.90
35962;DHT22;22044;48.298;10.008;2023-06-19T05:13:45;20.00;99.90
35962;DHT22;22044;48.298;10.008;2023-06-19T05:16:33;20.00;99.90
35962;DHT22;22044;48.298;10.008;2023-06-19T05:19:19;19.90;99.90
35962;DHT22;22044;48.298;10.008;2023-06-19T05:22:05;19.80;99.90
35962;DHT22;22044;48.298;10.008;2023-06-19T05:24:51;19.80;99.90
35962;DHT22;22044;48.298;10.008;2023-06-19T05:27:36;19.70;99.90
35962;DHT22;22044;48.298;10.008;2023-06-19T05:30:22;19.70;99.90
35962;DHT22;22044;48.298;10.008;2023-06-19T05:33:09;19.70;99.90
35962;DHT22;22044;48.298;10.008;2023-06-19T05:35:59;19.80;99.90
35962;DHT22;22044;48.298;10.008;2023-06-19T05:38:45;19.80;99.90
35962;DHT22;22044;48.298;10.008;2023-06-19T05:41:31;19.90;99.90
35962;DHT22;22044;48.298;10.008;2023-06-19T05:44:17;19.90;99.90
35962;DHT22;22044;48.298;10.008;2023-06-19T05:47:03;19.90;99.90
35962;DHT22;22044;48.298;10.008;2023-06-19T05:49:50;19.90;99.90
35962;DHT22;22044;48.298;10.008;2023-06-19T05:52:36;19.90;99.90
35962;DHT22;22044;48.298;10.008;2023-06-19T05:55:25;20.00;99.90
35962;DHT22;22044;48.298;10.008;2023-06-19T05:58:11;20.00;99.90
35962;DHT22;22044;48.298;10.008;2023-06-19T06:00:57;20.00;99.90
35962;DHT22;22044;48.298;10.008;2023-06-19T06:03:42;20.00;99.90
35962;DHT22;22044;48.298;10.008;2023-06-19T06:06:29;20.10;99.90
35962;DHT22;22044;48.298;10.008;2023-06-19T06:09:15;20.00;99.90
35962;DHT22;22044;48.298;10.008;2023-06-19T06:12:01;20.00;99.90
35962;DHT22;22044;48.298;10.008;2023-06-19T06:14:46;20.10;99.90
35962;DHT22;22044;48.298;10.008;2023-06-19T06:17:32;20.00;99.90
35962;DHT22;22044;48.298;10.008;2023-06-19T06:20:18;20.00;99.90
35962;DHT22;22044;48.298;10.008;2023-06-19T06:23:05;20.00;99.90
35962;DHT22;22044;48.298;10.008;2023-06-19T06:25:50;20.00;99.90
35962;DHT22;22044;48.298;10.008;2023-06-19T06:28:36;20.10;99.90
35962;DHT22;22044;48.298;10.008;2023-06-19T06:31:23;20.20;99.90
35962;DHT22;22044;48.298;10.008;2023-06-19T06:34:08;20.30;99.90
35962;DHT22;22044;48.298;10.008;2023-06-19T06:36:54;20.50;99.90
35962;DHT22;22044;48.298;10.008;2023-06-19T06:39:41;20.60;99.90
35962;DHT22;22044;48.298;10.008;2023-06-19T06:42:26;20.70;99.90
35962;DHT22;22044;48.298;10.008;2023-06-19T06:45:12;21.00;99.90
35962;DHT22;22044;48.298;10.008;2023-06-19T06:47:58;21.30;99.90
35962;DHT22;22044;48.298;10.008;2023-06-19T06:50:44;21.50;99.90
35962;DHT22;22044;48.298;10.008;2023-06-19T06:53:30;21.50;99.90
35962;DHT22;22044;48.298;10.008;2023-06-19T06:56:18;21.50;99.90
35962;DHT22;22044;48.298;10.008;2023-06-19T06:59:04;21.50;99.90
35962;DHT22;22044;48.298;10.008;2023-06-19T07:01:49;21.50;99.90
35962;DHT22;22044;48.298;10.008;2023-06-19T07:04:35;21.40;99.90
35962;DHT22;22044;48.298;10.008;2023-06-19T07:07:21;21.50;99.90
35962;DHT22;22044;48.298;10.008;2023-06-19T07:10:07;21.60;99.90
35962;DHT22;22044;48.298;10.008;2023-06-19T07:12:55;21.50;99.90
35962;DHT22;22044;48.298;10.008;2023-06-19T07:15:41;21.40;99.90
35962;DHT22;22044;48.298;10.008;2023-06-19T07:18:26;21.60;99.90
35962;DHT22;22044;48.298;10.008;2023-06-19T07:21:13;21.50;99.90
35962;DHT22;22044;48.298;10.008;2023-06-19T07:23:59;21.50;99.90
35962;DHT22;22044;48.298;10.008;2023-06-19T07:26:45;21.60;99.90
35962;DHT22;22044;48.298;10.008;2023-06-19T07:29:33;21.50;99.90
35962;DHT22;22044;48.298;10.008;2023-06-19T07:32:19;21.60;99.90
35962;DHT22;22044;48.298;10.008;2023-06-19T07:35:06;21.50;99.90
35962;DHT22;22044;48.298;10.008;2023-06-19T07:37:52;21.50;99.90
35962;DHT22;22044;48.298;10.008;2023-06-19T07:40:37;21.60;99.90
35962;DHT22;22044;48.298;10.008;2023-06-19T07:43:23;21.80;99.90
35962;DHT22;22044;48.298;10.008;2023-06-19T07:46:10;21.80;99.90
35962;DHT22;22044;48.298;10.008;2023-06-19T07:48:56;21.80;99.90
35962;DHT22;22044;48.298;10.008;2023-06-19T07:51:41;21.80;99.90
35962;DHT22;22044;48.298;10.008;2023-06-19T07:54:29;21.70;99.90
35962;DHT22;22044;48.298;10.008;2023-06-19T07:57:14;21.90;99.90
35962;DHT22;22044;48.298;10.008;2023-06-19T08:00:00;22.00;99.90
35962;DHT22;22044;48.298;10.008;2023-06-19T08:02:57;21.80;99.90
35962;DHT22;22044;48.298;10.008;2023-06-19T08:05:42;21.70;99.90
35962;DHT22;22044;48.298;10.008;2023-06-19T08:08:29;21.70;99.90
35962;DHT22;22044;48.298;10.008;2023-06-19T08:11:14;21.50;99.90
35962;DHT22;22044;48.298;10.008;2023-06-19T08:14:00;21.70;99.90
35962;DHT22;22044;48.298;10.008;2023-06-19T08:16:45;21.70;99.90
35962;DHT22;22044;48.298;10.008;2023-06-19T08:19:32;21.80;99.90
35962;DHT22;22044;48.298;10.008;2023-06-19T08:22:18;22.00;99.90
35962;DHT22;22044;48.298;10.008;2023-06-19T08:25:06;22.10;99.90
35962;DHT22;22044;48.298;10.008;2023-06-19T08:27:52;22.20;99.90
35962;DHT22;22044;48.298;10.008;2023-06-19T08:30:37;22.20;99.90
35962;DHT22;22044;48.298;10.008;2023-06-19T08:33:23;22.40;99.90
35962;DHT22;22044;48.298;10.008;2023-06-19T08:36:10;22.50;99.90
35962;DHT22;22044;48.298;10.008;2023-06-19T08:38:55;22.60;99.90
35962;DHT22;22044;48.298;10.008;2023-06-19T08:41:42;22.60;99.90
35962;DHT22;22044;48.298;10.008;2023-06-19T08:44:27;22.70;99.90
35962;DHT22;22044;48.298;10.008;2023-06-19T08:47:13;22.90;99.90
35962;DHT22;22044;48.298;10.008;2023-06-19T08:49:59;22.90;99.90
35962;DHT22;22044;48.298;10.008;2023-06-19T08:52:46;22.90;99.90
35962;DHT22;22044;48.298;10.008;2023-06-19T08:55:32;22.80;99.90
35962;DHT22;22044;48.298;10.008;2023-06-19T08:58:21;22.80;99.90
35962;DHT22;22044;48.298;10.008;2023-06-19T09:01:07;22.90;99.90
35962;DHT22;22044;48.298;10.008;2023-06-19T09:03:53;22.80;99.90
35962;DHT22;22044;48.298;10.008;2023-06-19T09:06:47;23.00;99.90
35962;DHT22;22044;48.298;10.008;2023-06-19T09:09:34;23.30;99.90
35962;DHT22;22044;48.298;10.008;2023-06-19T09:12:20;23.40;99.90
35962;DHT22;22044;48.298;10.008;2023-06-19T09:15:15;23.40;99.90
35962;DHT22;22044;48.298;10.008;2023-06-19T09:18:02;23.60;99.90
35962;DHT22;22044;48.298;10.008;2023-06-19T09:20:48;23.60;99.90
35962;DHT22;22044;48.298;10.008;2023-06-19T09:23:36;23.60;99.90
35962;DHT22;22044;48.298;10.008;2023-06-19T09:26:27;23.90;99.90
35962;DHT22;22044;48.298;10.008;2023-06-19T09:29:13;23.80;99.90
35962;DHT22;22044;48.298;10.008;2023-06-19T09:32:00;23.90;99.90
35962;DHT22;22044;48.298;10.008;2023-06-19T09:34:45;24.10;99.90
35962;DHT22;22044;48.298;10.008;2023-06-19T09:37:31;24.20;99.90
35962;DHT22;22044;48.298;10.008;2023-06-19T09:40:19;24.20;99.90
35962;DHT22;22044;48.298;10.008;2023-06-19T09:43:07;24.50;99.90
35962;DHT22;22044;48.298;10.008;2023-06-19T09:45:55;24.70;99.90
35962;DHT22;22044;48.298;10.008;2023-06-19T09:48:44;24.70;99.90
35962;DHT22;22044;48.298;10.008;2023-06-19T09:51:31;24.80;99.90
35962;DHT22;22044;48.298;10.008;2023-06-19T09:54:34;24.90;99.90
35962;DHT22;22044;48.298;10.008;2023-06-19T09:57:21;25.10;99.90
35962;DHT22;22044;48.298;10.008;2023-06-19T10:02:51;25.40;99.90
35962;DHT22;22044;48.298;10.008;2023-06-19T10:05:37;25.50;99.90
35962;DHT22;22044;48.298;10.008;2023-06-19T10:08:27;25.60;99.90
35962;DHT22;22044;48.298;10.008;2023-06-19T10:11:13;25.70;99.90
35962;DHT22;22044;48.298;10.008;2023-06-19T10:14:06;25.90;99.90
35962;DHT22;22044;48.298;10.008;2023-06-19T10:16:52;25.80;99.90
35962;DHT22;22044;48.298;10.008;2023-06-19T10:19:49;25.70;99.90
35962;DHT22;22044;48.298;10.008;2023-06-19T10:22:36;25.90;99.90
35962;DHT22;22044;48.298;10.008;2023-06-19T10:25:22;26.20;99.90
35962;DHT22;22044;48.298;10.008;2023-06-19T10:28:17;26.60;99.90
35962;DHT22;22044;48.298;10.008;2023-06-19T10:31:04;26.70;99.90
35962;DHT22;22044;48.298;10.008;2023-06-19T10:33:50;26.80;99.90
35962;DHT22;22044;48.298;10.008;2023-06-19T10:36:37;26.70;99.90
35962;DHT22;22044;48.298;10.008;2023-06-19T10:39:22;26.80;99.90
35962;DHT22;22044;48.298;10.008;2023-06-19T10:42:10;26.70;99.90
35962;DHT22;22044;48.298;10.008;2023-06-19T10:45:01;26.80;99.90
35962;DHT22;22044;48.298;10.008;2023-06-19T10:47:46;26.90;99.90
35962;DHT22;22044;48.298;10.008;2023-06-19T10:50:37;27.10;99.90
35962;DHT22;22044;48.298;10.008;2023-06-19T10:53:29;27.30;99.90
35962;DHT22;22044;48.298;10.008;2023-06-19T10:56:20;27.30;99.90
35962;DHT22;22044;48.298;10.008;2023-06-19T10:59:07;27.10;99.90
35962;DHT22;22044;48.298;10.008;2023-06-19T11:01:53;27.20;99.90
35962;DHT22;22044;48.298;10.008;2023-06-19T11:04:39;27.20;99.90
35962;DHT22;22044;48.298;10.008;2023-06-19T11:07:27;27.10;99.90
35962;DHT22;22044;48.298;10.008;2023-06-19T11:10:21;27.10;99.90
35962;DHT22;22044;48.298;10.008;2023-06-19T11:13:07;27.20;99.90
35962;DHT22;22044;48.298;10.008;2023-06-19T11:15:53;27.40;99.90
35962;DHT22;22044;48.298;10.008;2023-06-19T11:18:38;27.70;99.90
35962;DHT22;22044;48.298;10.008;2023-06-19T11:21:29;27.20;99.90
35962;DHT22;22044;48.298;10.008;2023-06-19T11:24:18;27.00;99.90
35962;DHT22;22044;48.298;10.008;2023-06-19T11:27:06;27.50;99.90
35962;DHT22;22044;48.298;10.008;2023-06-19T11:29:59;27.80;99.90
35962;DHT22;22044;48.298;10.008;2023-06-19T11:32:50;28.00;99.90
35962;DHT22;22044;48.298;10.008;2023-06-19T11:35:36;28.20;99.90
35962;DHT22;22044;48.298;10.008;2023-06-19T11:38:25;28.20;99.90
35962;DHT22;22044;48.298;10.008;2023-06-19T11:41:11;28.40;99.90
35962;DHT22;22044;48.298;10.008;2023-06-19T11:44:04;28.50;99.90
35962;DHT22;22044;48.298;10.008;2023-06-19T11:46:49;28.50;99.90
35962;DHT22;22044;48.298;10.008;2023-06-19T11:49:35;28.20;99.90
35962;DHT22;22044;48.298;10.008;2023-06-19T11:52:21;28.30;99.90
35962;DHT22;22044;48.298;10.008;2023-06-19T11:55:07;28.10;99.90
35962;DHT22;22044;48.298;10.008;2023-06-19T11:57:53;28.10;99.90
35962;DHT22;22044;48.298;10.008;2023-06-19T12:00:40;28.00;99.90
35962;DHT22;22044;48.298;10.008;2023-06-19T12:03:26;28.20;99.90
35962;DHT22;22044;48.298;10.008;2023-06-19T12:06:11;28.00;99.90
35962;DHT22;22044;48.298;10.008;2023-06-19T12:08:57;28.40;99.90
35962;DHT22;22044;48.298;10.008;2023-06-19T12:11:43;28.70;99.90
35962;DHT22;22044;48.298;10.008;2023-06-19T12:14:29;28.40;99.90
35962;DHT22;22044;48.298;10.008;2023-06-19T12:17:16;28.40;99.90
35962;DHT22;22044;48.298;10.008;2023-06-19T12:20:02;28.80;99.90
35962;DHT22;22044;48.298;10.008;2023-06-19T12:22:51;28.20;99.90
35962;DHT22;22044;48.298;10.008;2023-06-19T12:25:36;28.60;99.90
35962;DHT22;22044;48.298;10.008;2023-06-19T12:28:22;28.30;99.90
35962;DHT22;22044;48.298;10.008;2023-06-19T12:31:09;28.60;99.90
35962;DHT22;22044;48.298;10.008;2023-06-19T12:33:56;28.10;99.90
35962;DHT22;22044;48.298;10.008;2023-06-19T12:36:42;28.30;99.90
35962;DHT22;22044;48.298;10.008;2023-06-19T12:39:27;28.60;99.90
35962;DHT22;22044;48.298;10.008;2023-06-19T12:42:13;28.20;99.90
35962;DHT22;22044;48.298;10.008;2023-06-19T12:44:59;28.60;99.90
35962;DHT22;22044;48.298;10.008;2023-06-19T12:47:44;29.00;99.90
35962;DHT22;22044;48.298;10.008;2023-06-19T12:50:31;29.30;99.90
35962;DHT22;22044;48.298;10.008;2023-06-19T12:53:17;29.60;99.90
35962;DHT22;22044;48.298;10.008;2023-06-19T12:56:03;29.40;99.90
35962;DHT22;22044;48.298;10.008;2023-06-19T12:58:48;28.60;99.90
35962;DHT22;22044;48.298;10.008;2023-06-19T13:01:34;28.90;99.90
35962;DHT22;22044;48.298;10.008;2023-06-19T13:04:20;29.50;99.90
35962;DHT22;22044;48.298;10.008;2023-06-19T13:07:07;29.80;99.90
35962;DHT22;22044;48.298;10.008;2023-06-19T13:09:53;30.00;99.90
35962;DHT22;22044;48.298;10.008;2023-06-19T13:12:38;30.20;99.90
35962;DHT22;22044;48.298;10.008;2023-06-19T13:15:26;29.90;99.90
35962;DHT22;22044;48.298;10.008;2023-06-19T13:18:12;29.30;99.90
35962;DHT22;22044;48.298;10.008;2023-06-19T13:20:58;29.60;99.90
35962;DHT22;22044;48.298;10.008;2023-06-19T13:23:45;29.10;99.90
35962;DHT22;22044;48.298;10.008;2023-06-19T13:26:33;28.90;99.90
35962;DHT22;22044;48.298;10.008;2023-06-19T13:29:18;29.10;99.90
35962;DHT22;22044;48.298;10.008;2023-06-19T13:32:04;29.70;99.90
35962;DHT22;22044;48.298;10.008;2023-06-19T13:34:50;30.10;99.90
35962;DHT22;22044;48.298;10.008;2023-06-19T13:37:37;30.30;99.90
35962;DHT22;22044;48.298;10.008;2023-06-19T13:40:25;30.30;99.90
35962;DHT22;22044;48.298;10.008;2023-06-19T13:43:11;30.50;99.90
35962;DHT22;22044;48.298;10.008;2023-06-19T13:45:57;30.60;99.90
35962;DHT22;22044;48.298;10.008;2023-06-19T13:48:42;30.90;99.90
35962;DHT22;22044;48.298;10.008;2023-06-19T13:51:28;30.30;99.90
35962;DHT22;22044;48.298;10.008;2023-06-19T13:54:13;30.40;99.90
35962;DHT22;22044;48.298;10.008;2023-06-19T13:57:01;30.70;99.90
35962;DHT22;22044;48.298;10.008;2023-06-19T13:59:46;30.60;99.90
35962;DHT22;22044;48.298;10.008;2023-06-19T14:02:33;30.90;99.40
35962;DHT22;22044;48.298;10.008;2023-06-19T14:05:19;30.40;99.30
35962;DHT22;22044;48.298;10.008;2023-06-19T14:08:04;30.00;99.90
35962;DHT22;22044;48.298;10.008;2023-06-19T14:10:50;30.50;99.50
35962;DHT22;22044;48.298;10.008;2023-06-19T14:13:37;30.40;99.80
35962;DHT22;22044;48.298;10.008;2023-06-19T14:16:22;29.80;99.70
35962;DHT22;22044;48.298;10.008;2023-06-19T14:19:08;29.90;99.10
35962;DHT22;22044;48.298;10.008;2023-06-19T14:21:56;30.00;99.80
35962;DHT22;22044;48.298;10.008;2023-06-19T14:24:41;29.90;99.90
35962;DHT22;22044;48.298;10.008;2023-06-19T14:27:27;30.20;99.90
35962;DHT22;22044;48.298;10.008;2023-06-19T14:30:14;30.40;99.80
35962;DHT22;22044;48.298;10.008;2023-06-19T14:33:00;30.80;99.30
35962;DHT22;22044;48.298;10.008;2023-06-19T14:35:46;31.10;98.40
35962;DHT22;22044;48.298;10.008;2023-06-19T14:38:32;31.00;97.80
35962;DHT22;22044;48.298;10.008;2023-06-19T14:41:17;31.10;96.50
35962;DHT22;22044;48.298;10.008;2023-06-19T14:44:03;31.20;96.80
35962;DHT22;22044;48.298;10.008;2023-06-19T14:46:51;31.30;96.70
35962;DHT22;22044;48.298;10.008;2023-06-19T14:49:36;30.70;96.60
35962;DHT22;22044;48.298;10.008;2023-06-19T14:52:22;31.10;97.30
35962;DHT22;22044;48.298;10.008;2023-06-19T14:55:10;31.40;96.40
35962;DHT22;22044;48.298;10.008;2023-06-19T14:57:55;31.60;95.70
35962;DHT22;22044;48.298;10.008;2023-06-19T15:00:41;31.60;95.50
35962;DHT22;22044;48.298;10.008;2023-06-19T15:03:28;31.70;95.10
35962;DHT22;22044;48.298;10.008;2023-06-19T15:06:14;31.50;95.10
35962;DHT22;22044;48.298;10.008;2023-06-19T15:09:00;31.80;94.80
35962;DHT22;22044;48.298;10.008;2023-06-19T15:11:45;31.90;94.30
35962;DHT22;22044;48.298;10.008;2023-06-19T15:14:31;31.80;93.70
35962;DHT22;22044;48.298;10.008;2023-06-19T15:17:17;31.10;94.70
35962;DHT22;22044;48.298;10.008;2023-06-19T15:20:06;31.20;95.20
35962;DHT22;22044;48.298;10.008;2023-06-19T15:22:52;30.90;95.00
35962;DHT22;22044;48.298;10.008;2023-06-19T15:25:38;31.20;95.70
35962;DHT22;22044;48.298;10.008;2023-06-19T15:28:24;31.10;95.00
35962;DHT22;22044;48.298;10.008;2023-06-19T15:31:10;31.10;95.10
35962;DHT22;22044;48.298;10.008;2023-06-19T15:33:55;31.40;94.10
35962;DHT22;22044;48.298;10.008;2023-06-19T15:36:42;31.00;93.60
35962;DHT22;22044;48.298;10.008;2023-06-19T15:39:27;31.10;94.40
35962;DHT22;22044;48.298;10.008;2023-06-19T15:42:13;31.20;93.30
35962;DHT22;22044;48.298;10.008;2023-06-19T15:44:59;30.80;93.90
35962;DHT22;22044;48.298;10.008;2023-06-19T15:47:45;30.60;94.50
35962;DHT22;22044;48.298;10.008;2023-06-19T15:50:30;30.20;93.30
35962;DHT22;22044;48.298;10.008;2023-06-19T15:53:20;30.00;94.00
35962;DHT22;22044;48.298;10.008;2023-06-19T15:56:05;30.00;94.30
35962;DHT22;22044;48.298;10.008;2023-06-19T15:58:51;30.40;95.60
35962;DHT22;22044;48.298;10.008;2023-06-19T16:01:37;30.80;95.20
35962;DHT22;22044;48.298;10.008;2023-06-19T16:04:22;31.00;94.10
35962;DHT22;22044;48.298;10.008;2023-06-19T16:07:08;31.10;94.20
35962;DHT22;22044;48.298;10.008;2023-06-19T16:09:55;30.50;93.50
35962;DHT22;22044;48.298;10.008;2023-06-19T16:12:41;30.10;96.00
35962;DHT22;22044;48.298;10.008;2023-06-19T16:15:27;30.30;94.40
35962;DHT22;22044;48.298;10.008;2023-06-19T16:18:12;30.30;95.00
35962;DHT22;22044;48.298;10.008;2023-06-19T16:20:58;30.30;94.10
35962;DHT22;22044;48.298;10.008;2023-06-19T16:23:44;30.30;96.30
35962;DHT22;22044;48.298;10.008;2023-06-19T16:26:31;30.10;94.70
35962;DHT22;22044;48.298;10.008;2023-06-19T16:29:17;29.80;97.00
35962;DHT22;22044;48.298;10.008;2023-06-19T16:32:03;29.60;98.20
35962;DHT22;22044;48.298;10.008;2023-06-19T16:34:50;29.50;98.10
35962;DHT22;22044;48.298;10.008;2023-06-19T16:37:36;29.50;97.70
35962;DHT22;22044;48.298;10.008;2023-06-19T16:40:22;29.40;97.90
35962;DHT22;22044;48.298;10.008;2023-06-19T16:43:10;29.40;97.40
35962;DHT22;22044;48.298;10.008;2023-06-19T16:45:56;29.30;96.90
35962;DHT22;22044;48.298;10.008;2023-06-19T16:48:42;29.40;98.70
35962;DHT22;22044;48.298;10.008;2023-06-19T16:51:28;29.50;99.10
35962;DHT22;22044;48.298;10.008;2023-06-19T16:54:14;29.30;99.70
35962;DHT22;22044;48.298;10.008;2023-06-19T16:56:59;29.20;99.90
35962;DHT22;22044;48.298;10.008;2023-06-19T16:59:46;29.20;99.90
35962;DHT22;22044;48.298;10.008;2023-06-19T17:02:32;29.20;99.90
35962;DHT22;22044;48.298;10.008;2023-06-19T17:05:18;29.30;99.90
35962;DHT22;22044;48.298;10.008;2023-06-19T17:08:05;29.50;99.90
35962;DHT22;22044;48.298;10.008;2023-06-19T17:10:51;29.40;99.40
35962;DHT22;22044;48.298;10.008;2023-06-19T17:13:36;29.20;99.90
35962;DHT22;22044;48.298;10.008;2023-06-19T17:16:23;29.10;99.90
35962;DHT22;22044;48.298;10.008;2023-06-19T17:19:09;28.90;99.90